Latest Coastal Weather Observations for Hillarys Point Boat Harbour

IDW60701

Issued at 10:32 am WST Wednesday 8 July 2015 (issued every 10 minutes, with the page automatically refreshed every 10 minutes)

About coastal observations | Map of coastal stations | Coastal observations for WA | Marine services | Other Formats
Station Details ID: 009265 Name: HILLARYS BOAT HARBOUR NTC AWS Lat: -31.83 Lon: 115.74 Height: 0.0 m
Data from the previous 72 hours. | See also: Recent months for locations in Western Australia
Date/Time
WST
Temp

°C
Wind Pressure Rain
since 9am
mm
Weather Cloud Vis
km
Sea
Height
m
Swell
Dir
 
Speed
knots
Gust
knots
hPa Trend Height
m
Period
s
Dir
08/10:30am 12.2 S 6 13 1026.4 - - - - - - - - -
08/10:00am 12.0 SSE 6 12 1026.3 - - - - - - - - -
08/09:30am 11.7 SSE 7 12 1026.2 - - - - - - - - -
08/09:00am 11.5 SSE 5 12 1026.2 - - - - - - - - -
08/08:30am 11.2 SSE 5 9 1025.9 - - - - - - - - -
08/08:00am 11.0 SSE 5 9 1025.5 - - - - - - - - -
08/07:30am 11.1 SSE 6 15 1025.1 - - - - - - - - -
08/07:00am 11.6 SSE 7 13 1024.6 - - - - - - - - -
08/06:30am 12.1 S 7 16 1024.0 - - - - - - - - -
08/06:00am 12.0 SSE 8 14 1023.5 - - - - - - - - -
08/05:30am 12.4 SSE 9 14 1023.0 - - - - - - - - -
08/05:00am 12.7 SSE 8 16 1022.8 - - - - - - - - -
08/04:30am 13.1 SSE 8 15 1022.5 - - - - - - - - -
08/04:00am 12.9 SSE 7 15 1022.2 - - - - - - - - -
08/03:30am 13.1 SSE 9 17 1022.0 - - - - - - - - -
08/03:00am 13.3 SSE 6 13 1022.0 - - - - - - - - -
08/02:30am 13.3 SSE 8 15 1021.8 - - - - - - - - -
08/02:00am 13.6 SSE 7 14 1021.4 - - - - - - - - -
08/01:30am 13.8 S 7 15 1021.2 - - - - - - - - -
08/01:00am 14.0 S 6 13 1021.2 - - - - - - - - -
08/12:30am 14.1 S 7 20 1020.9 - - - - - - - - -
08/12:00am 13.9 S 7 18 1020.7 - - - - - - - - -
 
Date/Time
WST
Temp

°C
Wind Pressure Rain
since 9am
mm
Weather Cloud Vis
km
Sea
Height
m
Swell
Dir
 
Speed
knots
Gust
knots
hPa Trend Height
m
Period
s
Dir
07/11:30pm 14.1 S 6 17 1020.5 - - - - - - - - -
07/11:00pm 14.5 S 6 12 1020.1 - - - - - - - - -
07/10:30pm 14.3 SSE 5 12 1020.0 - - - - - - - - -
07/10:00pm 14.8 S 8 19 1019.7 - - - - - - - - -
07/09:30pm 16.5 SSW 10 18 1019.3 - - - - - - - - -
07/09:00pm 17.4 SW 10 17 1019.0 - - - - - - - - -
07/08:30pm 17.6 SW 13 19 1019.0 - - - - - - - - -
07/08:00pm 17.7 SW 10 16 1018.8 - - - - - - - - -
07/07:30pm 17.7 SW 11 17 1018.6 - - - - - - - - -
07/07:00pm 17.1 SW 11 19 1018.4 - - - - - - - - -
07/06:30pm 18.1 SW 12 17 1018.1 - - - - - - - - -
07/06:00pm 18.6 WSW 8 10 1017.7 - - - - - - - - -
07/05:30pm 18.6 WSW 9 14 1017.6 - - - - - - - - -
07/05:00pm 18.7 WSW 9 13 1017.5 - - - - - - - - -
07/04:30pm 18.7 WSW 11 15 1017.4 - - - - - - - - -
07/04:00pm 18.8 WSW 10 13 1017.3 - - - - - - - - -
07/03:30pm 18.7 WSW 12 17 1017.3 - - - - - - - - -
07/03:00pm 18.6 WSW 12 16 1017.4 - - - - - - - - -
07/02:30pm 17.1 WSW 11 19 1017.5 - - - - - - - - -
07/02:00pm 18.3 WSW 9 13 1017.5 - - - - - - - - -
07/01:30pm 17.3 WSW 9 15 1017.6 - - - - - - - - -
07/01:00pm 17.4 WSW 8 13 1017.9 - - - - - - - - -
07/12:30pm 17.8 NNW 4 6 1018.2 - - - - - - - - -
07/12:00pm 16.0 W 1 6 1018.6 - - - - - - - - -
07/11:30am 16.6 NNW 5 10 1019.3 - - - - - - - - -
07/11:00am 16.6 N 8 12 1019.2 - - - - - - - - -
07/10:30am 17.4 N 8 14 1019.3 - - - - - - - - -
07/10:00am 15.9 N 8 14 1019.5 - - - - - - - - -
07/09:30am 15.6 N 6 9 1019.6 - - - - - - - - -
07/09:00am 15.6 N 7 11 1019.4 - - - - - - - - -
07/08:30am 16.3 NNE 6 9 1019.1 - - - - - - - - -
07/08:00am 15.8 NNE 5 8 1019.0 - - - - - - - - -
07/07:30am 15.4 NNE 4 7 1019.0 - - - - - - - - -
07/07:00am 15.3 NNE 4 6 1018.9 - - - - - - - - -
07/06:30am 15.1 NNE 3 4 1018.6 - - - - - - - - -
07/06:00am 15.1 NNE 3 4 1018.6 - - - - - - - - -
07/05:30am 14.9 NNE 4 6 1018.4 - - - - - - - - -
07/05:00am 15.3 NNE 4 6 1018.5 - - - - - - - - -
07/04:30am 15.2 NNE 4 6 1018.6 - - - - - - - - -
07/04:00am 14.9 NE 3 5 1018.8 - - - - - - - - -
07/03:30am 15.2 NE 3 4 1019.0 - - - - - - - - -
07/03:00am 18.0 NW 2 5 1019.2 - - - - - - - - -
07/02:30am 17.9 W 3 5 1019.4 - - - - - - - - -
07/02:00am 17.8 W 5 7 1019.7 - - - - - - - - -
07/01:30am 17.9 W 6 9 1019.8 - - - - - - - - -
07/01:00am 18.0 W 7 11 1019.9 - - - - - - - - -
07/12:30am 18.1 W 7 12 1020.1 - - - - - - - - -
07/12:00am 18.2 WSW 9 13 1020.0 - - - - - - - - -
 
Date/Time
WST
Temp

°C
Wind Pressure Rain
since 9am
mm
Weather Cloud Vis
km
Sea
Height
m
Swell
Dir
 
Speed
knots
Gust
knots
hPa Trend Height
m
Period
s
Dir
06/11:30pm 18.4 WSW 8 13 1020.1 - - - - - - - - -
06/11:00pm 18.6 W 6 9 1020.0 - - - - - - - - -
06/10:30pm 18.5 W 7 10 1020.2 - - - - - - - - -
06/10:00pm 18.5 W 5 9 1020.3 - - - - - - - - -
06/09:30pm 18.3 W 5 8 1020.4 - - - - - - - - -
06/09:00pm 18.3 W 6 9 1020.6 - - - - - - - - -
06/08:30pm 18.2 WSW 7 10 1020.6 - - - - - - - - -
06/08:00pm 18.3 WSW 9 12 1020.6 - - - - - - - - -
06/07:30pm 18.3 WSW 8 12 1020.5 - - - - - - - - -
06/07:00pm 18.4 WSW 7 10 1020.3 - - - - - - - - -
06/06:30pm 18.5 WSW 5 8 1020.1 - - - - - - - - -
06/06:00pm 17.6 WSW 7 12 1020.0 - - - - - - - - -
06/05:30pm 18.1 WNW 3 8 1020.0 - - - - - - - - -
06/05:00pm 17.4 NNW 4 7 1019.7 - - - - - - - - -
06/04:30pm 16.7 NNW 4 8 1020.0 - - - - - - - - -
06/04:00pm 16.8 N 7 12 1019.7 - - - - - - - - -
06/03:30pm 16.9 N 7 12 1019.7 - - - - - - - - -
06/03:00pm 16.8 N 6 12 1019.8 - - - - - - - - -
06/02:30pm 16.6 NNW 6 11 1019.9 - - - - - - - - -
06/02:00pm 17.5 NNW 6 11 1019.7 - - - - - - - - -
06/01:30pm 16.6 NW 8 13 1020.2 - - - - - - - - -
06/01:00pm 17.4 NNW 8 14 1020.4 - - - - - - - - -
06/12:30pm 18.3 NNW 6 9 1020.7 - - - - - - - - -
06/12:00pm 18.4 NNW 6 10 1021.0 - - - - - - - - -
06/11:30am 18.2 NNE 6 9 1021.4 - - - - - - - - -
06/11:00am 17.0 NNE 6 9 1021.7 - - - - - - - - -
06/10:30am 16.7 N 6 10 1022.1 - - - - - - - - -
06/10:00am 15.9 NNE 5 8 1022.2 - - - - - - - - -
06/09:30am 14.9 NNE 6 10 1022.0 - - - - - - - - -
06/09:00am 14.2 NNE 5 8 1021.9 - - - - - - - - -
06/08:30am 13.5 NE 5 8 1021.6 - - - - - - - - -
06/08:00am 13.0 NE 5 8 1021.5 - - - - - - - - -
06/07:30am 12.7 NNE 6 9 1021.2 - - - - - - - - -
06/07:00am 12.4 NE 4 7 1021.0 - - - - - - - - -
06/06:30am 12.4 NE 5 8 1020.9 - - - - - - - - -
06/06:00am 12.3 NE 4 6 1020.6 - - - - - - - - -
06/05:30am 12.3 NE 4 8 1020.5 - - - - - - - - -
06/05:00am 12.1 ENE 4 6 1020.5 - - - - - - - - -
06/04:30am 12.2 ENE 4 7 1020.5 - - - - - - - - -
06/04:00am 12.2 ENE 5 7 1020.4 - - - - - - - - -
06/03:30am 12.6 ENE 4 6 1020.4 - - - - - - - - -
06/03:00am 12.8 NE 3 5 1020.6 - - - - - - - - -
06/02:30am 13.1 NE 3 5 1020.6 - - - - - - - - -
06/02:00am 13.0 NE 3 6 1020.8 - - - - - - - - -
06/01:30am 13.3 NE 3 6 1020.9 - - - - - - - - -
06/01:00am 13.2 NE 2 4 1021.1 - - - - - - - - -
06/12:30am 13.4 NE 3 5 1021.0 - - - - - - - - -
06/12:00am 13.5 NE 3 4 1021.2 - - - - - - - - -
 
Date/Time
WST
Temp

°C
Wind Pressure Rain
since 9am
mm
Weather Cloud Vis
km
Sea
Height
m
Swell
Dir
 
Speed
knots
Gust
knots
hPa Trend Height
m
Period
s
Dir
05/11:30pm 13.8 NE 3 4 1021.2 - - - - - - - - -
05/11:00pm 13.7 NE 2 4 1021.5 - - - - - - - - -
05/10:30pm 13.9 NE 2 3 1021.5 - - - - - - - - -
05/10:00pm 14.2 ENE 3 4 1021.5 - - - - - - - - -
05/09:30pm 14.4 ENE 3 3 1021.6 - - - - - - - - -
05/09:00pm 14.7 NE 2 4 1021.6 - - - - - - - - -
05/08:30pm 15.0 NE 2 4 1021.6 - - - - - - - - -
05/08:00pm 15.0 NE 3 5 1021.5 - - - - - - - - -
05/07:30pm 15.1 NE 2 4 1021.4 - - - - - - - - -
05/07:00pm 15.6 ENE 2 3 1021.2 - - - - - - - - -
05/06:30pm 15.7 ENE 2 3 1021.1 - - - - - - - - -
05/06:00pm 16.0 E 1 3 1020.7 - - - - - - - - -
05/05:30pm 16.3 ESE 1 3 1020.5 - - - - - - - - -
05/05:00pm 16.6 SSW 1 3 1020.5 - - - - - - - - -
05/04:30pm 16.6 SSW 2 4 1020.5 - - - - - - - - -
05/04:00pm 16.5 S 3 5 1020.4 - - - - - - - - -
05/03:30pm 16.3 S 1 4 1020.3 - - - - - - - - -
05/03:00pm 15.7 SW 6 9 1020.4 - - - - - - - - -
05/02:30pm 16.7 SSE 1 3 1020.2 - - - - - - - - -
05/02:00pm 16.3 SSW 2 5 1020.3 - - - - - - - - -
05/01:30pm 15.6 WSW 10 14 1020.5 - - - - - - - - -
05/01:00pm 18.2 NNW 6 10 1020.4 - - - - - - - - -
05/12:30pm 18.2 NNW 6 10 1020.6 - - - - - - - - -
05/12:00pm 18.0 NNW 6 11 1020.9 - - - - - - - - -
05/11:30am 17.9 NNW 6 9 1021.2 - - - - - - - - -
05/11:00am 17.4 NNW 6 10 1021.5 - - - - - - - - -

Other Formats:

Comma delimited format used in spreadsheet applications
http://www.bom.gov.au/fwo/IDW60701/IDW60701.95605.axf

JavaScript Object Notation format (JSON) in row-major order
http://www.bom.gov.au/fwo/IDW60701/IDW60701.95605.json